Destinations Varna Airport

Varna Airport (LBWN / VAR)

Flights to Varna Airport

Flight number From ETE Dispatch
SPY-520 EHGG Groningen Airport Eelde 02:55

Flights from Varna Airport

Flight number To ETE Dispatch
SPY-521 EHGG Groningen Airport Eelde
About

Varna Airport facts

Varna Airport is located in Varna at an elevation of 70.1 meters or 230 feet.

Currently, Speedy Airlines serves 2 flights to and from Varna Airport.

Detailed airport info

Route map

Weather

Current weather

METAR

METAR

Metar data retrieved Sunday, 21 July 2024 at 18:25 UTC

LBWN 211800Z AUTO 14007KT 9999 NCD 27/20 Q1007 NOSIG
Wind Temperature
7 kt 27c